Time;durP1;ratioP1;P1;durP2;ratioP2;P2;SDS_P1;SDS_P2;PMS_P1;PMS_P2;Temp;Humidity;BMP_temperature;BMP_pressure;BME280_temperature;BME280_humidity;BME280_pressure;Samples;Min_cycle;Max_cycle;Signal;HPM_P1;HPM_P2
2021/01/25 00:02:10;;;;;;;4.43;4.00;;;-5.10;1.40;;;-4.41;99.22;93782.37;610201;230;32262;-71
2021/01/25 00:04:39;;;;;;;4.50;3.40;;;-5.20;1.40;;;-4.38;99.98;93785.14;613023;232;23784;-70
2021/01/25 00:07:08;;;;;;;4.82;3.72;;;-4.90;1.40;;;-4.28;100.00;93788.13;605564;233;32379;-71
2021/01/25 00:09:37;;;;;;;3.90;3.42;;;-4.70;1.40;;;-4.15;99.69;93786.60;612302;229;32189;-71
2021/01/25 00:12:06;;;;;;;3.70;3.40;;;-4.50;1.40;;;-4.08;99.15;93781.91;614166;229;28079;-70
2021/01/25 00:14:36;;;;;;;4.87;3.50;;;-4.40;1.40;;;-4.09;98.44;93790.85;613354;230;32199;-71
2021/01/25 00:17:05;;;;;;;3.30;3.00;;;-4.60;1.40;;;-4.18;98.13;93790.23;616673;230;23524;-70
2021/01/25 00:19:34;;;;;;;3.80;3.40;;;-4.70;1.40;;;-4.18;97.94;93785.73;612675;230;32176;-70
2021/01/25 00:22:03;;;;;;;5.57;4.10;;;-4.90;1.40;;;-4.22;98.06;93783.55;618576;229;23558;-71
2021/01/25 00:24:32;;;;;;;5.65;3.70;;;-4.90;1.40;;;-4.19;98.27;93783.56;610099;230;32207;-70
2021/01/25 00:27:01;;;;;;;4.37;3.97;;;-4.80;1.40;;;-4.16;98.39;93783.00;612129;229;32576;-71
2021/01/25 00:29:30;;;;;;;5.00;3.60;;;-4.70;1.40;;;-4.21;98.21;93776.09;617619;230;23538;-71
2021/01/25 00:31:59;;;;;;;4.47;3.87;;;-4.80;1.40;;;-4.26;98.09;93774.67;607699;229;32091;-71
2021/01/25 00:34:28;;;;;;;4.05;3.75;;;-4.90;1.40;;;-4.30;97.91;93766.16;613197;230;32881;-71
2021/01/25 00:36:57;;;;;;;4.27;3.87;;;-5.00;1.40;;;-4.51;98.45;93762.97;617511;230;23544;-70
2021/01/25 00:39:26;;;;;;;4.80;3.42;;;-5.20;1.40;;;-4.61;99.04;93763.05;612361;229;32309;-70
2021/01/25 00:41:55;;;;;;;5.80;3.35;;;-5.30;1.40;;;-4.64;99.55;93758.75;612975;230;32156;-71
2021/01/25 00:44:24;;;;;;;3.40;3.13;;;-5.30;1.40;;;-4.68;100.00;93761.02;615797;229;23625;-71
2021/01/25 00:46:53;;;;;;;4.80;3.60;;;-5.30;1.40;;;-4.70;100.00;93763.38;609754;230;32144;-71
2021/01/25 00:49:22;;;;;;;5.50;4.10;;;-5.30;1.40;;;-4.66;100.00;93756.90;607685;230;32092;-71
2021/01/25 00:51:52;;;;;;;4.30;3.72;;;-5.30;1.40;;;-4.66;100.00;93751.98;613104;229;32118;-71
2021/01/25 00:54:21;;;;;;;5.37;4.87;;;-5.30;1.40;;;-4.65;100.00;93748.51;613939;229;23634;-71
2021/01/25 00:56:50;;;;;;;5.12;3.30;;;-5.20;1.40;;;-4.65;100.00;93749.56;615738;229;32082;-71
2021/01/25 00:59:19;;;;;;;4.73;3.83;;;-5.20;1.40;;;-4.61;100.00;93749.78;614929;230;23549;-71
2021/01/25 01:01:48;;;;;;;5.12;4.62;;;-5.10;1.40;;;-4.48;100.00;93744.48;610692;230;32196;-71
2021/01/25 01:04:17;;;;;;;4.82;4.32;;;-4.90;1.40;;;-4.40;100.00;93737.80;612243;227;32205;-70
2021/01/25 01:06:46;;;;;;;6.65;4.28;;;-4.80;1.40;;;-4.37;99.73;93740.41;611611;229;32105;-71
2021/01/25 01:09:15;;;;;;;4.77;3.90;;;-4.90;1.40;;;-4.68;99.03;93735.85;619110;229;29907;-70
2021/01/25 01:11:45;;;;;;;3.03;2.72;;;-5.20;1.40;;;-4.89;98.71;93741.47;614797;229;32074;-71
2021/01/25 01:14:13;;;;;;;5.70;3.50;;;-5.70;1.40;;;-4.88;98.99;93743.85;613072;229;32159;-71
2021/01/25 01:16:42;;;;;;;4.27;3.23;;;-5.80;1.40;;;-4.97;100.00;93749.27;614930;230;24351;-71
2021/01/25 01:19:12;;;;;;;5.47;3.90;;;-5.50;1.40;;;-5.15;100.00;93743.63;610760;229;32196;-72
2021/01/25 01:21:41;;;;;;;4.60;3.47;;;-5.60;1.40;;;-5.14;100.00;93740.69;612988;229;32274;-71
2021/01/25 01:24:10;;;;;;;9.90;3.77;;;-5.70;1.40;;;-5.17;100.00;93741.45;615143;230;23573;-72
2021/01/25 01:26:39;;;;;;;4.47;3.70;;;-5.70;1.40;;;-5.34;100.00;93739.14;612966;229;32045;-71
2021/01/25 01:29:08;;;;;;;4.30;3.57;;;-5.80;1.40;;;-5.31;100.00;93733.36;609378;230;32198;-71
2021/01/25 01:31:37;;;;;;;6.00;3.70;;;-5.60;1.40;;;-5.27;100.00;93729.17;617503;230;28954;-71
2021/01/25 01:34:06;;;;;;;4.32;3.37;;;-5.60;1.40;;;-5.15;100.00;93723.83;609512;229;32750;-71
2021/01/25 01:36:36;;;;;;;4.70;3.70;;;-5.50;1.40;;;-5.10;100.00;93723.71;611562;230;32215;-71
2021/01/25 01:39:05;;;;;;;3.90;3.43;;;-5.50;1.40;;;-5.05;100.00;93725.34;617702;230;29905;-71
2021/01/25 01:41:36;;;;;;;3.65;3.35;;;-5.40;1.40;;;-5.04;100.00;93717.73;610332;230;32640;-71
2021/01/25 01:44:07;;;;;;;4.10;3.70;;;-5.30;1.40;;;-4.99;100.00;93718.55;612001;229;32410;-71
2021/01/25 01:46:36;;;;;;;3.70;3.40;;;-5.40;1.40;;;-4.98;100.00;93716.03;609867;230;32718;-71
2021/01/25 01:49:05;;;;;;;5.05;4.20;;;-5.40;1.40;;;-5.01;100.00;93716.05;608618;230;32070;-71
2021/01/25 01:51:34;;;;;;;4.37;3.90;;;-5.50;1.40;;;-5.05;100.00;93717.00;616084;230;23561;-71
2021/01/25 01:54:03;;;;;;;4.12;3.10;;;-5.50;1.40;;;-5.06;100.00;93712.50;612181;229;32100;-71
2021/01/25 01:56:32;;;;;;;4.53;3.20;;;-5.50;1.40;;;-5.11;100.00;93714.98;611456;229;32711;-71
2021/01/25 01:59:01;;;;;;;4.33;3.47;;;-5.60;1.40;;;-5.14;100.00;93709.31;618354;230;23532;-71
2021/01/25 02:01:31;;;;;;;3.53;3.10;;;-5.70;1.40;;;-5.19;100.00;93714.48;611677;230;32181;-71
2021/01/25 02:04:00;;;;;;;4.65;3.60;;;-5.80;1.40;;;-5.16;100.00;93705.91;608037;229;32142;-71
2021/01/25 02:06:29;;;;;;;4.18;3.10;;;-5.60;1.40;;;-5.11;100.00;93705.85;611026;230;32255;-71
2021/01/25 02:08:58;;;;;;;3.37;3.07;;;-5.60;1.40;;;-5.15;100.00;93705.55;617510;229;23674;-71
2021/01/25 02:11:27;;;;;;;4.12;3.58;;;-5.60;1.40;;;-5.20;100.00;93698.91;610045;229;32217;-71
2021/01/25 02:13:56;;;;;;;4.30;3.90;;;-5.70;1.40;;;-5.17;100.00;93693.70;612984;230;32638;-71
2021/01/25 02:16:25;;;;;;;4.95;3.40;;;-5.70;1.40;;;-5.24;100.00;93695.14;613293;229;32130;-71
2021/01/25 02:18:54;;;;;;;3.87;3.50;;;-5.80;1.40;;;-5.36;100.00;93693.19;618961;229;24577;-71
2021/01/25 02:21:23;;;;;;;5.28;4.03;;;-6.00;1.40;;;-5.41;100.00;93685.45;610220;228;32526;-71
2021/01/25 02:23:58;;;;;;;3.60;3.10;;;-6.00;1.40;;;-5.40;100.00;93693.27;612436;229;32361;-71
2021/01/25 02:29:02;;;;;;;5.10;3.37;;;-6.10;1.40;;;-5.49;100.00;93680.16;648085;216;31843;-71
2021/01/25 02:31:31;;;;;;;6.63;4.43;;;-6.20;1.40;;;-5.65;100.00;93676.06;642733;221;23495;-72
2021/01/25 02:34:00;;;;;;;3.72;3.12;;;-6.30;1.40;;;-5.67;100.00;93668.50;636318;220;31914;-71
2021/01/25 02:36:29;;;;;;;4.27;3.87;;;-6.20;1.40;;;-5.60;100.00;93668.30;639410;221;24512;-72
2021/01/25 02:38:59;;;;;;;4.30;2.92;;;-6.10;1.40;;;-5.49;100.00;93669.17;641996;219;31894;-72
2021/01/25 02:41:28;;;;;;;4.18;3.78;;;-6.00;1.40;;;-5.16;100.00;93665.72;661663;211;31446;-73
2021/01/25 02:43:57;;;;;;;4.12;3.60;;;-5.80;1.40;;;-5.05;99.86;93667.23;657325;211;31603;-72
2021/01/25 02:46:26;;;;;;;3.40;3.17;;;-5.70;1.40;;;-4.93;98.76;93667.87;659486;215;23462;-72
2021/01/25 02:48:55;;;;;;;4.57;2.72;;;-5.70;1.40;;;-5.05;97.61;93657.09;636246;220;32501;-70
2021/01/25 02:51:24;;;;;;;3.12;2.80;;;-5.90;1.40;;;-5.15;97.96;93656.64;637966;220;31950;-71
2021/01/25 02:53:53;;;;;;;3.30;3.10;;;-5.90;1.40;;;-5.20;98.96;93656.50;635986;223;23578;-70
2021/01/25 02:56:22;;;;;;;3.90;3.20;;;-5.70;1.40;;;-5.24;99.45;93654.59;625452;225;31903;-70
2021/01/25 02:58:51;;;;;;;3.67;3.33;;;-5.60;1.40;;;-5.16;100.00;93654.41;624165;224;31982;-71
2021/01/25 03:01:20;;;;;;;3.37;3.17;;;-5.60;1.40;;;-5.05;100.00;93654.40;627172;225;23572;-70
2021/01/25 03:03:49;;;;;;;3.45;2.92;;;-5.50;1.40;;;-5.01;100.00;93652.71;626263;225;32271;-71
2021/01/25 03:06:19;;;;;;;5.22;3.12;;;-5.40;1.40;;;-4.95;99.58;93649.05;647557;215;31587;-71
2021/01/25 03:08:47;;;;;;;3.50;3.20;;;-5.40;1.40;;;-4.92;98.80;93649.03;632173;224;26666;-71
2021/01/25 03:11:19;;;;;;;3.62;2.40;;;-5.30;1.40;;;-4.94;98.28;93650.39;650065;216;32128;-71
2021/01/25 03:13:46;;;;;;;3.95;3.17;;;-5.20;1.40;;;-4.92;97.65;93650.66;648516;215;31576;-71
2021/01/25 03:16:16;;;;;;;3.00;2.80;;;-5.20;1.40;;;-4.95;97.96;93651.75;658030;216;23451;-70
2021/01/25 03:18:44;;;;;;;2.65;2.30;;;-5.20;1.40;;;-4.81;97.46;93649.29;648520;216;31618;-71
2021/01/25 03:21:13;;;;;;;3.25;2.80;;;-5.10;1.40;;;-4.74;96.59;93645.42;633586;222;32171;-70
2021/01/25 03:23:42;;;;;;;2.57;1.97;;;-5.00;1.40;;;-4.74;96.25;93647.17;656675;216;23454;-70
2021/01/25 03:26:11;;;;;;;3.03;2.30;;;-5.00;1.40;;;-4.78;96.47;93649.16;648859;215;31591;-70
2021/01/25 03:28:40;;;;;;;2.60;2.20;;;-5.20;1.40;;;-4.81;96.66;93650.77;648244;215;31838;-70
2021/01/25 03:31:09;;;;;;;2.73;2.53;;;-5.20;1.40;;;-4.84;96.79;93648.50;654774;215;23462;-71
2021/01/25 03:33:38;;;;;;;2.40;2.15;;;-5.10;1.40;;;-4.87;96.85;93648.64;651796;215;31772;-71
2021/01/25 03:36:07;;;;;;;2.30;2.10;;;-5.10;1.40;;;-4.78;96.32;93647.09;651847;215;32139;-71
2021/01/25 03:38:36;;;;;;;2.37;2.27;;;-5.00;1.40;;;-4.71;95.05;93647.34;632214;224;23547;-70
2021/01/25 03:41:05;;;;;;;2.22;1.80;;;-4.90;1.40;;;-4.57;93.39;93633.77;638872;219;31842;-70
2021/01/25 03:43:34;;;;;;;2.55;1.70;;;-4.70;1.40;;;-4.50;92.31;93632.80;651959;215;31563;-71
2021/01/25 03:46:03;;;;;;;2.08;1.92;;;-4.70;1.40;;;-4.51;91.85;93628.25;650887;215;31588;-71
2021/01/25 03:48:33;;;;;;;2.20;2.00;;;-4.80;1.40;;;-4.54;92.00;93633.89;635300;225;23513;-71
2021/01/25 03:51:02;;;;;;;2.20;2.00;;;-5.00;1.40;;;-4.58;92.01;93631.02;639661;220;31729;-70
2021/01/25 03:53:31;;;;;;;2.62;2.08;;;-5.00;1.40;;;-4.61;92.37;93627.98;650210;215;31636;-70
2021/01/25 03:56:00;;;;;;;2.87;2.17;;;-5.10;1.40;;;-4.76;93.15;93628.23;637935;219;31738;-70
2021/01/25 03:58:29;;;;;;;2.63;2.30;;;-5.10;1.40;;;-4.90;94.35;93634.35;641449;220;23491;-70
2021/01/25 04:00:58;;;;;;;2.05;1.95;;;-5.30;1.40;;;-5.04;95.13;93634.39;624329;224;31998;-70
2021/01/25 04:03:27;;;;;;;2.17;1.70;;;-5.40;1.40;;;-5.02;95.52;93636.56;623395;225;32019;-71
2021/01/25 04:05:56;;;;;;;4.13;2.40;;;-5.40;1.40;;;-5.10;95.71;93645.22;627490;224;23511;-70
2021/01/25 04:08:25;;;;;;;2.67;2.30;;;-5.50;1.40;;;-5.14;95.84;93649.46;650082;215;32182;-70
2021/01/25 04:10:54;;;;;;;2.10;1.90;;;-5.50;1.40;;;-5.10;95.57;93645.27;653348;215;32009;-70
2021/01/25 04:13:23;;;;;;;2.47;2.37;;;-5.60;1.40;;;-5.13;95.62;93648.78;655304;215;24488;-70
2021/01/25 04:15:52;;;;;;;1.77;1.65;;;-5.70;1.40;;;-5.09;95.29;93652.04;650870;215;31738;-70
2021/01/25 04:18:21;;;;;;;2.62;2.10;;;-5.80;1.40;;;-5.14;95.48;93663.41;650004;215;31739;-71
2021/01/25 04:20:50;;;;;;;2.40;2.27;;;-5.70;1.40;;;-5.09;94.98;93662.92;655357;216;23477;-70
2021/01/25 04:23:19;;;;;;;2.10;1.90;;;-5.70;1.40;;;-5.00;94.81;93657.37;650345;215;31545;-70
2021/01/25 04:25:49;;;;;;;3.92;2.00;;;-5.80;1.40;;;-5.21;95.05;93649.41;649536;215;32431;-70
2021/01/25 04:28:18;;;;;;;3.40;2.10;;;-5.90;1.40;;;-5.27;95.51;93657.47;650982;216;31604;-71
2021/01/25 04:30:47;;;;;;;2.77;2.57;;;-6.00;1.40;;;-5.36;95.81;93650.09;654791;216;23688;-71
2021/01/25 04:33:16;;;;;;;1.90;1.80;;;-6.10;1.40;;;-5.33;96.65;93644.31;651618;216;31594;-71
2021/01/25 04:35:45;;;;;;;2.60;2.40;;;-6.10;1.40;;;-5.37;96.67;93642.06;651551;215;31567;-70
2021/01/25 04:38:14;;;;;;;3.50;2.47;;;-6.20;1.40;;;-5.42;97.34;93644.16;642836;221;28805;-71
2021/01/25 04:42:59;;;;;;;3.03;2.30;;;-6.20;1.40;;;-5.27;97.42;93641.63;646864;216;31586;-70
2021/01/25 04:45:28;;;;;;;2.93;2.73;;;-6.10;1.40;;;-5.31;97.00;93640.00;634705;224;24632;-70
2021/01/25 04:47:57;;;;;;;2.03;1.80;;;-6.10;1.40;;;-5.31;96.71;93641.59;635782;219;31762;-70
2021/01/25 04:50:27;;;;;;;4.10;2.10;;;-5.90;1.40;;;-5.35;97.54;93643.77;651114;215;31534;-71
2021/01/25 04:52:56;;;;;;;9.80;2.47;;;-5.90;1.40;;;-5.20;97.48;93645.09;657367;215;23441;-70
2021/01/25 04:55:25;;;;;;;3.00;1.80;;;-5.60;1.40;;;-5.02;96.20;93644.54;636416;220;31743;-70
2021/01/25 04:57:54;;;;;;;2.10;1.85;;;-5.40;1.40;;;-4.84;94.49;93641.37;637962;220;31769;-70
2021/01/25 05:00:23;;;;;;;2.73;2.53;;;-5.20;1.40;;;-4.73;92.67;93645.84;628874;225;23526;-70
2021/01/25 05:02:52;;;;;;;4.95;1.90;;;-5.00;1.40;;;-4.59;91.37;93644.80;639959;215;31614;-69
2021/01/25 05:05:21;;;;;;;2.80;1.77;;;-4.90;1.40;;;-4.46;89.79;93646.28;635559;220;42401;-70
2021/01/25 05:07:50;;;;;;;2.80;1.70;;;-4.80;1.40;;;-4.31;88.66;93643.77;637965;220;42585;-70
2021/01/25 05:10:19;;;;;;;2.50;2.10;;;-4.80;1.40;;;-4.25;88.89;93644.40;628922;225;25684;-71
2021/01/25 05:12:48;;;;;;;5.32;1.85;;;-4.80;1.40;;;-4.16;88.11;93645.71;649495;215;31753;-70
2021/01/25 05:15:25;;;;;;;5.37;2.30;;;-4.70;1.40;;;-4.07;87.15;93645.09;653038;215;31540;-70
2021/01/25 05:17:53;;;;;;;3.83;2.60;;;-4.60;1.40;;;-4.01;87.30;93649.55;639439;220;23484;-71
2021/01/25 05:20:26;;;;;;;3.47;1.85;;;-4.60;1.40;;;-4.05;85.64;93648.17;636419;220;31793;-70
2021/01/25 05:22:56;;;;;;;2.50;1.80;;;-4.50;1.40;;;-3.95;85.08;93648.05;655165;216;25680;-70
2021/01/25 05:25:28;;;;;;;3.30;1.95;;;-4.40;1.40;;;-3.83;85.05;93651.23;649079;216;31640;-71
2021/01/25 05:28:00;;;;;;;4.07;1.77;;;-4.40;1.40;;;-3.72;84.37;93654.39;649772;216;42878;-70
2021/01/25 05:30:30;;;;;;;2.60;1.73;;;-4.30;1.40;;;-3.52;83.65;93644.44;649666;215;31608;-71
2021/01/25 05:32:59;;;;;;;2.80;1.80;;;-4.20;1.40;;;-3.49;82.72;93642.32;656847;216;27785;-71
2021/01/25 05:35:51;;;;;;;4.60;1.40;;;-4.20;1.40;;;-3.44;83.19;93643.13;644762;216;31873;-72
2021/01/25 05:38:20;;;;;;;4.03;2.40;;;-4.10;1.40;;;-3.35;82.77;93645.94;641028;220;23484;-72
2021/01/25 05:40:49;;;;;;;4.07;1.90;;;-4.10;1.40;;;-3.52;83.19;93651.91;637202;220;31886;-72
2021/01/25 05:43:19;;;;;;;1.80;1.67;;;-4.10;1.40;;;-3.42;84.29;93651.13;639570;221;23663;-72
2021/01/25 05:45:48;;;;;;;3.25;1.85;;;-4.10;1.40;;;-3.33;84.57;93664.63;623501;225;31929;-72
2021/01/25 05:48:17;;;;;;;2.60;1.70;;;-4.10;1.40;;;-3.19;85.66;93676.94;624651;225;32129;-72
2021/01/25 05:50:46;;;;;;;3.87;1.90;;;-4.00;1.40;;;-3.19;86.76;93680.85;627391;225;23518;-72
2021/01/25 05:53:15;;;;;;;2.78;1.90;;;-3.90;1.40;;;-3.24;90.36;93673.53;621794;225;31957;-71
2021/01/25 05:55:44;;;;;;;3.37;2.08;;;-3.70;1.40;;;-2.96;88.53;93673.67;625180;225;31980;-72
2021/01/25 05:58:13;;;;;;;2.67;2.20;;;-3.60;1.40;;;-2.91;85.28;93685.66;620033;225;32024;-72
2021/01/25 06:00:42;;;;;;;3.20;2.40;;;-3.50;1.40;;;-2.90;84.35;93686.81;622643;225;32035;-72
2021/01/25 06:03:11;;;;;;;4.50;2.57;;;-3.40;1.40;;;-2.76;85.31;93682.70;628096;225;23532;-72
2021/01/25 06:05:40;;;;;;;3.50;2.35;;;-3.40;1.40;;;-2.60;82.72;93681.45;637235;220;31760;-70
2021/01/25 06:08:15;;;;;;;3.10;2.80;;;-3.30;1.40;;;-2.31;82.73;93673.70;652429;215;31611;-70
2021/01/25 06:13:43;;;;;;;3.20;2.60;;;-3.20;1.40;;;-2.20;83.02;93656.66;648312;216;31577;-72
2021/01/25 06:16:12;;;;;;;3.40;2.60;;;-3.20;1.40;;;-2.25;83.47;93667.10;641808;221;23529;-73
2021/01/25 06:18:41;;;;;;;4.40;2.58;;;-3.20;1.40;;;-2.61;84.33;93688.38;634046;220;31900;-72
2021/01/25 06:21:10;;;;;;;5.20;3.00;;;-3.30;1.40;;;-2.65;82.04;93684.08;639573;221;23515;-72
2021/01/25 06:23:39;;;;;;;3.28;2.97;;;-3.20;1.40;;;-2.66;82.35;93701.38;637774;221;31772;-72
2021/01/25 06:26:08;;;;;;;3.75;3.20;;;-3.20;1.40;;;-2.68;83.43;93708.27;635883;221;31970;-72
2021/01/25 06:28:37;;;;;;;4.70;3.90;;;-3.20;1.40;;;-2.51;83.88;93694.18;639911;221;23503;-72
2021/01/25 06:31:06;;;;;;;3.83;3.00;;;-3.10;1.40;;;-2.28;83.42;93690.09;639162;219;32305;-72
2021/01/25 06:33:38;;;;;;;3.57;3.27;;;-3.10;1.40;;;-2.08;82.95;93689.48;643691;220;23485;-73
2021/01/25 06:36:08;;;;;;;5.60;3.80;;;-3.10;1.40;;;-1.87;82.69;93694.39;663671;211;31486;-72
2021/01/25 06:38:37;;;;;;;8.23;5.10;;;-3.00;1.40;;;-2.24;81.90;93702.12;666323;211;23480;-72
2021/01/25 06:41:09;;;;;;;6.23;5.17;;;-3.00;1.40;;;-2.22;82.69;93703.05;630391;225;24577;-72
2021/01/25 06:43:40;;;;;;;3.25;2.95;;;-3.00;1.40;;;-2.00;83.29;93689.75;632707;224;31660;-71
2021/01/25 06:46:09;;;;;;;11.93;7.62;;;-3.00;1.40;;;-2.04;81.67;93696.98;637264;220;31753;-72
2021/01/25 06:48:38;;;;;;;4.77;3.47;;;-3.00;1.40;;;-2.07;83.40;93683.01;655760;215;23455;-72
2021/01/25 06:51:08;;;;;;;8.73;5.78;;;-2.90;1.40;;;-1.77;82.89;93691.41;651275;215;31789;-71
2021/01/25 06:53:36;;;;;;;6.72;5.65;;;-2.90;1.40;;;-1.57;81.92;93695.17;629182;225;31883;-71
2021/01/25 06:56:06;;;;;;;5.47;4.10;;;-2.80;1.40;;;-2.08;80.94;93705.30;654402;215;23508;-72
2021/01/25 06:58:36;;;;;;;4.20;3.30;;;-2.80;1.40;;;-2.14;81.84;93706.59;651650;216;31561;-71
2021/01/25 07:01:06;;;;;;;4.33;3.87;;;-2.80;1.40;;;-2.10;82.41;93715.29;655173;216;23464;-71
2021/01/25 07:03:43;;;;;;;10.18;5.10;;;-2.80;1.40;;;-2.05;81.67;93721.91;627081;225;31935;-71
2021/01/25 07:06:15;;;;;;;7.70;5.35;;;-2.80;1.40;;;-2.06;81.48;93719.10;647361;215;31614;-72
2021/01/25 07:08:54;;;;;;;7.97;5.12;;;-2.80;1.40;;;-2.25;82.56;93724.42;653486;216;31851;-73
2021/01/25 07:11:23;;;;;;;7.62;3.80;;;-2.80;1.40;;;-2.29;82.24;93726.33;650705;215;31739;-73
2021/01/25 07:13:52;;;;;;;5.30;4.00;;;-2.90;1.40;;;-2.14;82.88;93733.40;621639;224;42947;-72
2021/01/25 07:16:21;;;;;;;4.37;4.00;;;-2.90;1.40;;;-1.96;83.67;93735.20;636704;223;24540;-73
2021/01/25 07:18:50;;;;;;;4.37;3.70;;;-2.90;1.40;;;-2.15;85.14;93738.77;654513;215;25612;-71
2021/01/25 07:24:01;;;;;;;4.05;3.10;;;-3.10;1.40;;;-2.54;89.89;93741.70;645436;216;32768;-68
2021/01/25 07:26:29;;;;;;;2.80;2.60;;;-3.20;1.40;;;-2.73;92.94;93739.40;639520;221;26299;-69
2021/01/25 07:28:58;;;;;;;2.63;2.40;;;-3.30;1.40;;;-3.09;96.19;93737.97;655263;215;26613;-68
2021/01/25 07:31:27;;;;;;;2.60;2.40;;;-3.60;1.40;;;-2.93;97.75;93736.80;668715;211;24474;-68
2021/01/25 07:33:56;;;;;;;3.30;2.50;;;-3.60;1.40;;;-3.22;100.00;93740.83;663435;211;31522;-69
2021/01/25 07:36:25;;;;;;;2.73;2.33;;;-3.70;1.40;;;-3.22;100.00;93738.81;668991;211;23442;-69
2021/01/25 07:38:55;;;;;;;4.85;3.12;;;-3.70;1.40;;;-3.17;100.00;93735.28;650045;215;31905;-68
2021/01/25 07:41:24;;;;;;;2.97;2.77;;;-3.70;1.40;;;-3.22;100.00;93730.88;667588;211;23441;-68
2021/01/25 07:43:54;;;;;;;3.17;2.30;;;-3.70;1.40;;;-3.23;100.00;93726.58;657560;211;31805;-69
2021/01/25 07:46:23;;;;;;;2.03;1.83;;;-3.70;1.40;;;-3.12;100.00;93729.44;655415;215;23444;-68
2021/01/25 07:48:52;;;;;;;2.60;2.00;;;-3.60;1.40;;;-3.12;100.00;93733.94;650851;215;31732;-68
2021/01/25 07:51:23;;;;;;;1.70;1.60;;;-3.60;1.40;;;-2.95;100.00;93730.97;649019;215;31551;-68
2021/01/25 07:53:52;;;;;;;2.10;1.90;;;-3.50;1.40;;;-2.95;100.00;93732.94;659314;215;23478;-69
2021/01/25 07:56:23;;;;;;;3.92;2.22;;;-3.50;1.40;;;-2.86;100.00;93733.58;647300;215;31614;-68
2021/01/25 07:58:50;;;;;;;2.13;1.97;;;-3.40;1.40;;;-2.80;100.00;93730.67;655720;215;25638;-68
2021/01/25 08:01:22;;;;;;;2.42;1.90;;;-3.40;1.40;;;-2.82;100.00;93730.56;652967;216;32052;-68
2021/01/25 08:03:51;;;;;;;2.50;1.80;;;-3.30;1.40;;;-2.60;100.00;93730.78;650261;215;31665;-68
2021/01/25 08:06:20;;;;;;;4.87;2.07;;;-3.30;1.40;;;-2.74;100.00;93732.02;626054;225;23551;-68
2021/01/25 08:08:49;;;;;;;2.08;1.70;;;-3.30;1.40;;;-2.50;100.00;93728.02;630351;224;32159;-69
2021/01/25 08:11:19;;;;;;;1.90;1.70;;;-3.20;1.40;;;-2.42;100.00;93728.92;634890;220;31761;-68
2021/01/25 08:14:02;;;;;;;2.20;2.00;;;-3.20;1.40;;;-2.18;100.00;93731.44;657781;216;23441;-68
2021/01/25 08:16:32;;;;;;;5.07;3.37;;;-3.00;1.40;;;-2.07;100.00;93729.45;647949;216;31644;-69
2021/01/25 08:19:03;;;;;;;6.10;5.13;;;-2.90;1.40;;;-2.04;100.00;93730.97;655242;215;30007;-69
2021/01/25 08:21:36;;;;;;;4.97;4.47;;;-2.90;1.40;;;-2.12;100.00;93731.06;657570;216;29828;-69
2021/01/25 08:24:06;;;;;;;4.32;3.92;;;-2.90;1.40;;;-2.10;100.00;93727.66;625266;225;31970;-68
2021/01/25 08:26:35;;;;;;;4.73;4.27;;;-2.80;1.40;;;-1.95;100.00;93734.72;634111;224;27749;-69
2021/01/25 08:29:05;;;;;;;2.97;2.77;;;-2.80;1.40;;;-2.01;100.00;93734.73;640843;223;24525;-69
2021/01/25 08:31:35;;;;;;;3.10;2.90;;;-2.80;1.40;;;-1.92;100.00;93735.92;627835;225;24575;-69
2021/01/25 08:34:06;;;;;;;3.37;2.30;;;-2.80;1.40;;;-1.90;100.00;93737.94;655733;215;24494;-68
2021/01/25 08:36:36;;;;;;;3.05;2.00;;;-2.70;1.40;;;-1.88;100.00;93738.63;648110;215;31819;-68
2021/01/25 08:39:09;;;;;;;2.17;2.03;;;-2.70;1.40;;;-2.09;100.00;93740.08;641656;222;23485;-69
2021/01/25 08:41:38;;;;;;;2.23;1.70;;;-2.80;1.40;;;-1.93;100.00;93739.86;630407;224;26689;-69
2021/01/25 08:44:12;;;;;;;2.10;2.00;;;-2.80;1.40;;;-1.87;100.00;93743.98;657404;215;24582;-69
2021/01/25 08:46:41;;;;;;;2.40;2.20;;;-2.70;1.40;;;-1.95;100.00;93742.68;649184;215;31575;-69
2021/01/25 08:49:15;;;;;;;2.40;2.17;;;-2.80;1.40;;;-1.97;100.00;93747.52;656195;215;23441;-68
2021/01/25 08:51:59;;;;;;;2.70;1.58;;;-2.70;1.40;;;-1.96;100.00;93749.53;651299;215;32620;-69
2021/01/25 08:54:30;;;;;;;2.20;2.00;;;-2.70;1.40;;;-1.92;100.00;93752.28;658779;215;23497;-68
2021/01/25 08:56:58;;;;;;;2.23;2.10;;;-2.70;1.40;;;-1.95;100.00;93754.05;656328;215;24478;-68
2021/01/25 08:59:28;;;;;;;1.80;1.45;;;-2.80;1.40;;;-1.83;100.00;93755.10;621872;225;32383;-68
2021/01/25 09:01:59;;;;;;;2.70;2.50;;;-2.60;1.40;;;-1.49;100.00;93759.59;630284;225;23519;-68
2021/01/25 09:04:28;;;;;;;3.33;2.05;;;-2.40;1.40;;;-1.45;100.00;93760.30;650678;215;32719;-69
2021/01/25 09:06:57;;;;;;;3.53;3.33;;;-2.40;1.40;;;-1.36;100.00;93764.03;652633;215;24538;-69
2021/01/25 09:09:26;;;;;;;3.50;3.20;;;-2.30;1.40;;;-1.40;100.00;93767.40;655495;215;24465;-68
2021/01/25 09:11:56;;;;;;;7.00;5.90;;;-2.30;1.40;;;-1.52;100.00;93769.75;628824;225;25267;-69
2021/01/25 09:14:25;;;;;;;9.82;7.12;;;-2.30;1.40;;;-1.27;100.00;93772.48;648980;216;31594;-69
2021/01/25 09:17:02;;;;;;;13.50;10.75;;;-2.10;1.40;;;-1.42;100.00;93766.83;648610;216;31726;-70
2021/01/25 09:19:31;;;;;;;9.47;8.50;;;-2.10;1.40;;;-1.16;100.00;93772.27;642160;221;23467;-70
2021/01/25 09:22:00;;;;;;;5.63;5.13;;;-1.90;1.40;;;-0.99;100.00;93777.10;643143;221;26779;-70
2021/01/25 09:24:29;;;;;;;5.73;5.30;;;-1.90;1.40;;;-0.76;100.00;93777.48;633178;221;25704;-70
2021/01/25 09:26:58;;;;;;;3.70;3.40;;;-1.80;1.40;;;-0.41;100.00;93780.50;642489;221;25613;-70
2021/01/25 09:29:27;;;;;;;4.43;4.03;;;-1.60;1.40;;;-0.45;100.00;93775.67;641028;221;24535;-70
2021/01/25 09:31:56;;;;;;;2.93;2.67;;;-1.40;1.40;;;-0.54;100.00;93780.32;639214;221;30175;-71
2021/01/25 09:34:25;;;;;;;3.13;2.93;;;-1.40;1.40;;;-0.62;100.00;93782.10;639396;221;24546;-71
2021/01/25 09:36:54;;;;;;;3.30;2.83;;;-1.40;1.40;;;-0.40;100.00;93791.08;637329;221;25644;-71
2021/01/25 09:39:23;;;;;;;2.53;2.20;;;-1.30;1.40;;;-0.39;100.00;93788.89;641420;221;28784;-70
2021/01/25 09:41:52;;;;;;;2.67;2.47;;;-1.10;1.40;;;-0.09;100.00;93792.97;642179;221;27686;-70
2021/01/25 09:44:21;;;;;;;5.83;2.60;;;-1.00;1.40;;;0.09;100.00;93803.34;633405;220;24565;-70
2021/01/25 09:46:52;;;;;;;2.50;2.10;;;-0.90;1.40;;;0.05;100.00;93805.98;627450;225;24561;-70
2021/01/25 09:49:19;;;;;;;2.40;2.20;;;-1.00;1.40;;;0.05;100.00;93809.81;632595;222;31728;-70
2021/01/25 09:51:48;;;;;;;6.27;2.50;;;-1.00;1.40;;;0.13;100.00;93812.36;657545;215;23626;-70
2021/01/25 09:54:18;;;;;;;2.17;1.83;;;-0.90;1.40;;;0.61;100.00;93813.05;652504;216;31918;-70
2021/01/25 09:56:47;;;;;;;2.60;1.97;;;-0.70;1.40;;;0.68;100.00;93819.16;642050;220;25627;-70
2021/01/25 09:59:16;;;;;;;3.17;2.97;;;-0.60;1.40;;;0.76;100.00;93818.98;641072;221;24505;-68
2021/01/25 10:01:45;;;;;;;2.60;2.40;;;-0.50;1.40;;;0.81;100.00;93821.06;656383;216;24476;-69
2021/01/25 10:04:14;;;;;;;5.20;2.83;;;-0.40;1.40;;;1.13;100.00;93826.08;654334;216;25863;-69
2021/01/25 10:06:44;;;;;;;2.70;2.50;;;-0.30;1.40;;;1.13;99.56;93822.19;636052;221;31843;-69
2021/01/25 10:09:12;;;;;;;2.30;2.10;;;-0.30;1.40;;;1.03;100.00;93824.63;655200;216;23428;-68
2021/01/25 10:11:42;;;;;;;3.23;2.70;;;-0.40;1.40;;;1.03;100.00;93828.09;657062;216;24460;-68
2021/01/25 10:14:11;;;;;;;2.77;2.57;;;-0.30;1.40;;;1.09;100.00;93830.95;653589;215;24888;-68
2021/01/25 10:16:41;;;;;;;3.73;3.10;;;-0.10;1.40;;;1.19;100.00;93826.43;633323;224;24599;-68
2021/01/25 10:19:10;;;;;;;2.80;2.60;;;-0.10;1.40;;;1.35;100.00;93831.22;653125;216;24927;-68
2021/01/25 10:21:39;;;;;;;3.22;2.42;;;0.00;1.40;;;1.24;100.00;93833.36;623963;225;32032;-68
2021/01/25 10:24:08;;;;;;;2.93;2.73;;;0.00;1.40;;;1.14;100.00;93835.94;655598;216;23626;-68
2021/01/25 10:26:38;;;;;;;2.90;2.60;;;0.00;1.40;;;1.16;100.00;93833.30;653636;214;33596;-68
2021/01/25 10:29:07;;;;;;;3.30;3.00;;;0.10;1.40;;;1.01;100.00;93840.66;662436;215;23429;-68
2021/01/25 10:34:10;;;;;;;2.50;2.30;;;0.20;1.40;;;1.77;99.86;93842.87;648516;216;31576;-70
2021/01/25 10:39:14;;;;;;;7.45;2.37;;;0.20;1.40;;;1.58;99.24;93849.84;645315;212;31535;-68
2021/01/25 10:41:44;;;;;;;2.70;2.50;;;0.10;1.40;;;1.73;98.94;93850.25;643464;220;23462;-68
2021/01/25 10:44:17;;;;;;;2.90;2.70;;;0.20;1.40;;;1.74;99.00;93850.50;647960;216;24559;-68
2021/01/25 10:46:42;;;;;;;3.33;2.40;;;0.30;1.40;;;1.58;99.53;93852.94;657278;215;26849;-68
2021/01/25 10:49:11;;;;;;;2.80;2.60;;;0.40;1.40;;;1.59;99.49;93850.05;654899;215;24471;-68